Time;durP1;ratioP1;P1;durP2;ratioP2;P2;SDS_P1;SDS_P2;PMS_P1;PMS_P2;Temp;Humidity;BMP_temperature;BMP_pressure;BME280_temperature;BME280_humidity;BME280_pressure;Samples;Min_cycle;Max_cycle;Signal;HPM_P1;HPM_P2
2022/09/10 00:02:15;;;;;;;;;9.67;7.33;;;;;23.11;54.01;100741.41;110520;1262;14473;-69
2022/09/10 00:04:42;;;;;;;;;5.67;5.67;;;;;23.11;54.04;100738.98;110518;1262;13139;-67
2022/09/10 00:07:10;;;;;;;;;7.00;6.00;;;;;23.11;54.09;100742.64;110531;1261;14245;-68
2022/09/10 00:09:37;;;;;;;;;10.00;7.00;;;;;23.11;53.99;100740.88;110524;1261;14623;-68
2022/09/10 00:12:04;;;;;;;;;10.00;7.00;;;;;23.11;54.00;100742.42;110562;1262;12527;-68
2022/09/10 00:14:32;;;;;;;;;10.50;10.50;;;;;23.12;53.96;100745.16;110544;1262;13196;-70
2022/09/10 00:16:59;;;;;;;;;8.00;7.00;;;;;23.11;53.97;100742.48;110448;1264;16757;-67
2022/09/10 00:19:27;;;;;;;;;9.33;7.00;;;;;23.12;53.97;100740.16;110497;1262;13214;-68
2022/09/10 00:21:54;;;;;;;;;7.33;7.00;;;;;23.11;53.90;100739.69;110503;1262;13808;-67
2022/09/10 00:24:22;;;;;;;;;7.00;7.00;;;;;23.12;53.93;100741.30;110508;1262;14285;-67
2022/09/10 00:26:49;;;;;;;;;6.67;6.00;;;;;23.11;53.90;100741.71;110580;1262;13190;-67
2022/09/10 00:29:17;;;;;;;;;7.00;7.00;;;;;23.12;53.87;100742.70;110563;1262;14948;-67
2022/09/10 00:31:44;;;;;;;;;7.67;7.67;;;;;23.12;53.85;100744.04;110459;1261;14890;-70
2022/09/10 00:34:11;;;;;;;;;8.00;8.00;;;;;23.12;53.88;100741.13;110461;1262;14163;-67
2022/09/10 00:36:39;;;;;;;;;7.00;7.00;;;;;23.11;53.90;100740.27;110534;1262;13879;-68
2022/09/10 00:39:06;;;;;;;;;7.67;7.67;;;;;23.11;53.96;100736.16;110599;1262;13329;-69
2022/09/10 00:41:34;;;;;;;;;7.00;6.00;;;;;23.11;53.93;100738.27;110558;1262;13094;-69
2022/09/10 00:44:01;;;;;;;;;11.00;8.00;;;;;23.10;53.88;100739.10;110561;1262;13926;-69
2022/09/10 00:46:28;;;;;;;;;11.00;7.50;;;;;23.12;53.89;100737.14;110539;1261;13272;-67
2022/09/10 00:48:56;;;;;;;;;6.67;6.33;;;;;23.11;53.89;100739.98;110545;1262;13792;-68
2022/09/10 00:51:25;;;;;;;;;7.33;6.67;;;;;23.11;53.80;100740.08;110543;1261;13431;-68
2022/09/10 00:53:52;;;;;;;;;6.00;6.00;;;;;23.11;53.83;100737.77;110601;1262;13113;-67
2022/09/10 00:56:19;;;;;;;;;4.00;4.00;;;;;23.11;53.85;100734.27;110528;1262;13775;-67
2022/09/10 00:58:47;;;;;;;;;6.33;6.33;;;;;23.10;53.81;100730.90;110536;1262;12792;-69
2022/09/10 01:01:14;;;;;;;;;5.33;5.33;;;;;23.10;53.86;100728.79;110508;1262;18119;-69
2022/09/10 01:03:42;;;;;;;;;7.00;7.00;;;;;23.11;53.86;100733.80;110547;1262;13785;-69
2022/09/10 01:06:09;;;;;;;;;8.00;7.00;;;;;23.11;53.81;100735.40;110586;1262;14657;-69
2022/09/10 01:08:36;;;;;;;;;7.33;6.00;;;;;23.12;53.80;100730.57;110551;1261;13013;-66
2022/09/10 01:11:05;;;;;;;;;8.00;7.00;;;;;23.11;53.86;100732.29;110540;1262;14148;-69
2022/09/10 01:13:32;;;;;;;;;5.67;5.67;;;;;23.11;53.90;100727.95;110552;1262;13842;-68
2022/09/10 01:16:00;;;;;;;;;6.00;6.00;;;;;23.11;53.85;100726.02;110490;1262;14283;-68
2022/09/10 01:18:29;;;;;;;;;6.00;6.00;;;;;23.11;53.85;100727.66;110531;1262;14208;-68
2022/09/10 01:20:56;;;;;;;;;8.00;6.67;;;;;23.12;53.83;100723.09;110562;1262;13236;-68
2022/09/10 01:23:23;;;;;;;;;7.00;6.00;;;;;23.11;53.87;100719.70;110466;1261;13936;-68
2022/09/10 01:25:51;;;;;;;;;6.00;6.00;;;;;23.12;53.79;100716.33;110518;1261;14106;-68
2022/09/10 01:28:18;;;;;;;;;6.00;6.00;;;;;23.11;53.75;100716.94;110564;1261;14852;-68
2022/09/10 01:30:45;;;;;;;;;8.67;8.00;;;;;23.11;53.85;100711.13;110525;1262;13413;-69
2022/09/10 01:33:12;;;;;;;;;6.67;6.67;;;;;23.12;53.80;100708.80;110517;1261;14586;-68
2022/09/10 01:35:40;;;;;;;;;7.00;6.33;;;;;23.12;53.70;100705.89;110568;1262;13061;-69
2022/09/10 01:38:08;;;;;;;;;8.00;7.50;;;;;23.12;53.71;100701.55;110536;1261;14307;-68
2022/09/10 01:40:35;;;;;;;;;8.00;7.00;;;;;23.12;53.73;100701.48;110539;1262;15380;-70
2022/09/10 01:43:02;;;;;;;;;6.50;6.00;;;;;23.11;53.78;100695.45;110510;1261;13948;-66
2022/09/10 01:45:29;;;;;;;;;6.00;5.67;;;;;23.12;53.78;100691.38;110528;1262;14425;-68
2022/09/10 01:47:57;;;;;;;;;6.00;5.33;;;;;23.11;53.76;100689.92;110440;1261;12893;-69
2022/09/10 01:50:24;;;;;;;;;6.00;6.00;;;;;23.11;53.77;100692.54;110384;1262;14753;-68
2022/09/10 01:52:51;;;;;;;;;6.00;5.00;;;;;23.11;53.73;100697.81;110555;1261;14321;-68
2022/09/10 01:55:20;;;;;;;;;7.00;7.00;;;;;23.12;53.68;100695.33;110532;1261;14800;-69
2022/09/10 01:57:49;;;;;;;;;5.00;5.00;;;;;23.12;53.69;100692.21;110545;1262;14262;-68
2022/09/10 02:00:16;;;;;;;;;6.67;5.00;;;;;23.12;53.71;100687.55;110584;1260;15107;-68
2022/09/10 02:02:43;;;;;;;;;7.00;6.67;;;;;23.11;53.70;100687.11;110582;1262;16479;-67
2022/09/10 02:05:10;;;;;;;;;6.00;5.00;;;;;23.10;53.74;100682.52;110502;1261;12984;-70
2022/09/10 02:07:38;;;;;;;;;5.00;3.67;;;;;23.09;53.76;100680.20;110475;1262;13189;-66
2022/09/10 02:10:05;;;;;;;;;7.00;6.33;;;;;23.08;53.81;100680.23;110494;1262;13146;-69
2022/09/10 02:12:32;;;;;;;;;5.00;3.00;;;;;23.09;53.72;100680.20;110512;1261;14545;-67
2022/09/10 02:15:00;;;;;;;;;3.00;3.00;;;;;23.10;53.73;100680.47;110563;1262;13002;-67
2022/09/10 02:17:27;;;;;;;;;5.00;5.00;;;;;23.10;53.73;100682.52;110557;1261;14933;-67
2022/09/10 02:19:55;;;;;;;;;5.00;5.00;;;;;23.10;53.71;100677.73;110533;1262;14293;-67
2022/09/10 02:22:23;;;;;;;;;3.00;3.00;;;;;23.09;53.77;100678.73;110536;1261;13916;-69
2022/09/10 02:24:51;;;;;;;;;7.00;6.00;;;;;23.10;53.79;100677.98;110575;1261;14516;-67
2022/09/10 02:27:18;;;;;;;;;4.33;4.33;;;;;23.08;53.72;100675.02;110559;1262;14481;-64
2022/09/10 02:29:45;;;;;;;;;6.00;5.00;;;;;23.09;53.76;100678.27;110604;1262;13045;-68
2022/09/10 02:32:13;;;;;;;;;5.33;4.33;;;;;23.07;53.77;100675.73;110484;1260;15146;-68
2022/09/10 02:34:40;;;;;;;;;6.00;5.00;;;;;23.07;53.75;100669.30;110554;1261;15042;-67
2022/09/10 02:37:07;;;;;;;;;6.00;5.00;;;;;23.10;53.70;100670.24;110544;1261;14560;-67
2022/09/10 02:39:35;;;;;;;;;5.00;4.00;;;;;23.09;53.80;100666.37;110542;1262;14439;-68
2022/09/10 02:42:02;;;;;;;;;5.00;5.00;;;;;23.08;53.75;100665.94;110588;1262;12872;-68
2022/09/10 02:44:30;;;;;;;;;6.00;6.00;;;;;23.08;53.77;100662.53;110488;1262;12446;-68
2022/09/10 02:46:57;;;;;;;;;3.00;3.00;;;;;23.09;53.76;100660.73;110509;1261;13092;-67
2022/09/10 02:49:24;;;;;;;;;6.00;5.33;;;;;23.10;53.74;100665.58;110448;1261;18119;-68
2022/09/10 02:51:52;;;;;;;;;5.00;5.00;;;;;23.09;53.71;100663.59;110550;1262;13160;-68
2022/09/10 02:54:19;;;;;;;;;5.33;5.33;;;;;23.11;53.72;100668.19;110422;1262;14604;-67
2022/09/10 02:56:48;;;;;;;;;6.33;6.00;;;;;23.09;53.69;100675.84;110526;1262;12890;-67
2022/09/10 02:59:16;;;;;;;;;4.33;3.00;;;;;23.09;53.69;100682.90;110526;1261;16864;-67
2022/09/10 03:01:43;;;;;;;;;7.00;6.33;;;;;23.10;53.63;100682.23;110552;1261;13689;-69
2022/09/10 03:04:11;;;;;;;;;5.33;5.00;;;;;23.10;53.67;100678.61;110553;1261;13947;-68
2022/09/10 03:06:38;;;;;;;;;6.00;5.00;;;;;23.10;53.66;100677.56;110547;1262;14285;-68
2022/09/10 03:09:06;;;;;;;;;5.67;4.33;;;;;23.10;53.65;100675.80;110574;1262;13165;-68
2022/09/10 03:11:33;;;;;;;;;5.00;5.00;;;;;23.10;53.68;100674.24;110554;1260;14408;-68
2022/09/10 03:14:01;;;;;;;;;5.00;5.00;;;;;23.09;53.68;100673.18;110551;1262;14447;-69
2022/09/10 03:16:29;;;;;;;;;6.00;4.33;;;;;23.09;53.70;100679.83;110533;1262;15114;-66
2022/09/10 03:18:56;;;;;;;;;5.00;5.00;;;;;23.08;53.61;100670.15;110549;1262;14116;-68
2022/09/10 03:21:23;;;;;;;;;6.00;5.00;;;;;23.09;53.66;100666.45;110533;1262;14020;-69
2022/09/10 03:23:51;;;;;;;;;5.67;5.33;;;;;23.08;53.65;100665.23;110515;1262;14664;-68
2022/09/10 03:26:18;;;;;;;;;5.00;5.00;;;;;23.08;53.67;100665.81;110516;1262;14066;-69
2022/09/10 03:28:46;;;;;;;;;6.00;5.00;;;;;23.08;53.57;100661.41;110417;1262;13802;-67
2022/09/10 03:31:13;;;;;;;;;4.00;3.00;;;;;23.08;53.64;100660.98;110543;1262;14886;-67
2022/09/10 03:33:40;;;;;;;;;4.33;3.00;;;;;23.09;53.61;100663.27;110518;1262;14055;-67
2022/09/10 03:36:08;;;;;;;;;5.67;5.00;;;;;23.07;53.63;100662.14;110604;1262;14117;-68
2022/09/10 03:38:35;;;;;;;;;4.33;4.33;;;;;23.06;53.67;100660.73;110515;1262;14549;-68
2022/09/10 03:41:03;;;;;;;;;3.00;3.00;;;;;23.06;53.68;100662.17;110514;1262;13956;-68
2022/09/10 03:43:31;;;;;;;;;5.00;5.00;;;;;23.06;53.68;100662.73;110559;1260;14325;-68
2022/09/10 03:45:58;;;;;;;;;3.00;3.00;;;;;23.06;53.75;100660.77;110536;1262;14374;-67
2022/09/10 03:48:25;;;;;;;;;7.50;6.50;;;;;23.07;53.69;100656.46;110520;1262;14671;-68
2022/09/10 03:50:55;;;;;;;;;3.00;3.00;;;;;23.07;53.67;100658.11;110599;1262;13147;-68
2022/09/10 03:53:22;;;;;;;;;6.00;5.00;;;;;23.06;53.71;100657.59;110547;1262;14840;-67
2022/09/10 03:55:49;;;;;;;;;5.00;3.00;;;;;23.07;53.67;100661.42;110492;1262;14726;-67
2022/09/10 03:58:17;;;;;;;;;3.00;3.00;;;;;23.06;53.77;100661.70;110514;1262;16712;-67
2022/09/10 04:00:45;;;;;;;;;5.00;5.00;;;;;23.04;53.80;100666.14;110531;1262;14151;-69
2022/09/10 04:03:13;;;;;;;;;2.33;2.33;;;;;23.05;53.81;100668.37;110483;1261;12248;-67
2022/09/10 04:05:42;;;;;;;;;5.67;5.00;;;;;23.07;53.77;100668.15;110547;1262;13277;-67
2022/09/10 04:08:09;;;;;;;;;5.00;3.67;;;;;23.06;53.80;100665.69;110525;1262;13093;-69
2022/09/10 04:10:37;;;;;;;;;5.00;5.00;;;;;23.07;53.69;100664.12;110529;1260;14177;-69
2022/09/10 04:13:04;;;;;;;;;5.00;5.00;;;;;23.08;53.70;100661.27;110534;1262;14239;-68
2022/09/10 04:15:31;;;;;;;;;6.00;5.00;;;;;23.08;53.70;100662.20;110561;1262;17585;-69
2022/09/10 04:17:59;;;;;;;;;3.67;3.67;;;;;23.07;53.70;100660.94;110582;1262;12623;-68
2022/09/10 04:20:26;;;;;;;;;5.67;5.67;;;;;23.07;53.70;100660.05;110546;1262;13789;-69
2022/09/10 04:22:53;;;;;;;;;3.00;3.00;;;;;23.08;53.66;100662.74;110525;1261;14885;-67
2022/09/10 04:25:21;;;;;;;;;5.33;5.00;;;;;23.08;53.64;100665.64;110543;1262;14735;-68
2022/09/10 04:27:48;;;;;;;;;5.00;5.00;;;;;23.07;53.61;100665.30;110499;1262;14189;-67
2022/09/10 04:30:15;;;;;;;;;3.00;3.00;;;;;23.07;53.63;100666.48;110512;1262;13183;-63
2022/09/10 04:32:44;;;;;;;;;3.00;3.00;;;;;23.06;53.69;100664.40;110532;1262;13242;-66
2022/09/10 04:35:12;;;;;;;;;7.00;5.00;;;;;23.07;53.62;100662.64;110576;1262;14274;-65
2022/09/10 04:37:39;;;;;;;;;4.00;4.00;;;;;23.07;53.66;100658.27;110585;1262;14294;-66
2022/09/10 04:40:08;;;;;;;;;3.00;3.00;;;;;23.05;53.68;100657.40;110529;1262;13759;-64
2022/09/10 04:42:35;;;;;;;;;5.00;3.00;;;;;23.05;53.62;100654.80;110603;1262;14397;-67
2022/09/10 04:45:02;;;;;;;;;3.67;3.00;;;;;23.04;53.71;100660.80;110549;1261;13065;-68
2022/09/10 04:47:29;;;;;;;;;3.00;3.00;;;;;23.04;53.70;100659.45;110528;1262;13076;-66
2022/09/10 04:49:57;;;;;;;;;5.67;5.00;;;;;23.05;53.57;100660.84;110492;1261;14706;-67
2022/09/10 04:52:24;;;;;;;;;3.00;3.00;;;;;23.05;53.66;100661.40;110469;1262;14125;-67
2022/09/10 04:54:51;;;;;;;;;5.00;5.00;;;;;23.04;53.64;100659.88;110529;1262;14267;-68
2022/09/10 04:57:18;;;;;;;;;3.00;3.00;;;;;23.06;53.58;100660.61;110455;1262;13791;-69
2022/09/10 04:59:46;;;;;;;;;7.00;6.00;;;;;23.07;53.53;100660.93;110580;1262;15711;-68
2022/09/10 05:02:13;;;;;;;;;3.00;3.00;;;;;23.09;53.58;100656.95;110549;1262;14426;-68
2022/09/10 05:04:41;;;;;;;;;5.33;3.67;;;;;23.10;53.65;100655.14;110435;1261;14245;-68
2022/09/10 05:07:08;;;;;;;;;3.67;3.67;;;;;23.15;53.88;100657.38;110487;1262;13291;-69
2022/09/10 05:09:35;;;;;;;;;3.67;3.67;;;;;23.19;54.79;100656.04;110539;1262;14522;-68
2022/09/10 05:12:02;;;;;;;;;6.50;5.50;;;;;23.25;55.35;100654.71;110528;1262;13204;-69
2022/09/10 05:14:30;;;;;;;;;6.33;5.00;;;;;23.32;55.33;100654.78;110486;1262;14385;-67
2022/09/10 05:16:57;;;;;;;;;7.33;6.67;;;;;23.29;55.19;100651.34;110487;1262;14376;-68
2022/09/10 05:19:24;;;;;;;;;5.00;5.00;;;;;23.25;55.24;100652.15;109550;1261;1308783;-68
2022/09/10 05:21:51;;;;;;;;;6.00;6.00;;;;;23.23;55.38;100652.99;110498;1262;14990;-68
2022/09/10 05:24:19;;;;;;;;;5.00;3.00;;;;;23.21;55.46;100656.10;110532;1262;13883;-67
2022/09/10 05:26:46;;;;;;;;;5.67;5.00;;;;;23.21;55.53;100657.03;110550;1262;12670;-69
2022/09/10 05:29:15;;;;;;;;;6.33;6.00;;;;;23.21;55.38;100658.16;110311;1262;14420;-68
2022/09/10 05:31:43;;;;;;;;;7.00;6.00;;;;;23.22;55.36;100659.65;110282;1261;14256;-68
2022/09/10 05:34:10;;;;;;;;;6.33;6.00;;;;;23.22;55.39;100656.73;110429;1262;14306;-68
2022/09/10 05:36:37;;;;;;;;;8.00;6.00;;;;;23.23;55.37;100655.30;110505;1262;13839;-68
2022/09/10 05:39:05;;;;;;;;;6.50;6.00;;;;;23.25;55.45;100657.82;110465;1262;13169;-68
2022/09/10 05:41:32;;;;;;;;;6.33;6.33;;;;;23.26;55.61;100655.66;110394;1261;14448;-68
2022/09/10 05:43:59;;;;;;;;;6.00;6.00;;;;;23.30;56.21;100652.48;110431;1261;14951;-68
2022/09/10 05:46:27;;;;;;;;;6.00;6.00;;;;;23.34;56.58;100649.23;110454;1262;13849;-69
2022/09/10 05:48:54;;;;;;;;;8.00;6.67;;;;;23.35;56.38;100652.14;110350;1262;14856;-68
2022/09/10 05:51:26;;;;;;;;;7.00;7.00;;;;;23.34;56.23;100651.30;110537;1262;14702;-68
2022/09/10 05:53:53;;;;;;;;;11.00;7.67;;;;;23.33;56.58;100649.62;110541;1262;11530;-68
2022/09/10 05:56:21;;;;;;;;;7.67;7.00;;;;;23.33;57.05;100652.09;110511;1261;13422;-67
2022/09/10 05:58:48;;;;;;;;;5.00;5.00;;;;;23.33;57.00;100650.20;110499;1261;14509;-68
2022/09/10 06:01:15;;;;;;;;;7.00;6.00;;;;;23.38;57.73;100655.08;110419;1262;15185;-66
2022/09/10 06:03:43;;;;;;;;;6.00;6.00;;;;;23.40;58.93;100655.98;110502;1262;12838;-68
2022/09/10 06:06:10;;;;;;;;;6.00;6.00;;;;;23.40;59.43;100656.38;110497;1262;12791;-67
2022/09/10 06:08:38;;;;;;;;;10.00;8.67;;;;;23.47;59.55;100653.06;110504;1262;13618;-69
2022/09/10 06:11:05;;;;;;;;;7.67;7.33;;;;;23.50;59.34;100655.88;110488;1261;13711;-68
2022/09/10 06:13:33;;;;;;;;;8.33;8.00;;;;;23.45;59.11;100654.11;110461;1262;13517;-69
2022/09/10 06:16:00;;;;;;;;;7.00;7.00;;;;;23.44;59.14;100656.23;110480;1262;13520;-68
2022/09/10 06:18:27;;;;;;;;;9.33;7.00;;;;;23.40;58.95;100662.59;110428;1262;14619;-68
2022/09/10 06:20:55;;;;;;;;;6.67;6.67;;;;;23.37;58.78;100667.70;110571;1261;13115;-68
2022/09/10 06:23:22;;;;;;;;;8.33;8.00;;;;;23.35;58.40;100661.48;110515;1261;14420;-68
2022/09/10 06:25:49;;;;;;;;;7.00;7.00;;;;;23.32;57.91;100656.74;110493;1262;14659;-69
2022/09/10 06:28:17;;;;;;;;;7.67;7.00;;;;;23.30;58.20;100657.37;110531;1262;14492;-68
2022/09/10 06:30:44;;;;;;;;;7.00;6.00;;;;;23.30;58.42;100655.48;110552;1261;14417;-68
2022/09/10 06:33:12;;;;;;;;;7.00;6.00;;;;;23.34;58.31;100659.25;110585;1262;12970;-70
2022/09/10 06:35:39;;;;;;;;;6.00;5.67;;;;;23.34;58.60;100652.77;110550;1261;13973;-69
2022/09/10 06:38:07;;;;;;;;;6.00;6.00;;;;;23.36;58.61;100651.81;110529;1262;14569;-68
2022/09/10 06:40:35;;;;;;;;;7.00;6.00;;;;;23.38;58.63;100652.34;110505;1262;13862;-68
2022/09/10 06:43:02;;;;;;;;;7.00;7.00;;;;;23.37;58.56;100651.55;110414;1262;13548;-68
2022/09/10 06:45:29;;;;;;;;;7.00;7.00;;;;;23.38;58.87;100651.35;110353;1262;15159;-66
2022/09/10 06:47:56;;;;;;;;;42.00;35.50;;;;;23.40;58.96;100647.48;110366;1262;13111;-67
2022/09/10 06:50:24;;;;;;;;;105.00;76.00;;;;;23.44;58.77;100644.25;110442;1261;13147;-66
2022/09/10 06:52:52;;;;;;;;;417.25;283.00;;;;;23.42;58.45;100642.69;110405;1262;15847;-68
2022/09/10 06:55:19;;;;;;;;;320.67;236.00;;;;;23.44;58.61;100638.05;110343;1262;13425;-68
2022/09/10 06:57:46;;;;;;;;;262.00;193.67;;;;;23.44;58.54;100635.08;110398;1261;14392;-66
2022/09/10 07:00:14;;;;;;;;;152.67;120.67;;;;;23.46;58.57;100640.69;110446;1262;10584;-66
2022/09/10 07:02:41;;;;;;;;;114.67;93.00;;;;;23.51;58.46;100642.61;110482;1261;13822;-65
2022/09/10 07:05:08;;;;;;;;;100.50;77.00;;;;;23.51;58.30;100641.31;110408;1261;13456;-66
2022/09/10 07:07:36;;;;;;;;;90.67;65.33;;;;;23.51;58.36;100643.16;110419;1262;13585;-67
2022/09/10 07:10:03;;;;;;;;;76.00;54.00;;;;;23.54;58.29;100644.83;110407;1262;13222;-66
2022/09/10 07:12:31;;;;;;;;;67.67;50.00;;;;;23.55;58.14;100645.86;110421;1262;12758;-66
2022/09/10 07:14:59;;;;;;;;;61.00;44.33;;;;;23.55;58.30;100648.05;110418;1261;11439;-65
2022/09/10 07:17:26;;;;;;;;;58.67;42.00;;;;;23.43;57.91;100650.04;110321;1262;13283;-65
2022/09/10 07:19:53;;;;;;;;;56.00;39.00;;;;;23.25;57.84;100649.79;110490;1261;13948;-67
2022/09/10 07:22:20;;;;;;;;;50.67;35.67;;;;;23.22;57.97;100650.89;110533;1261;13133;-67
2022/09/10 07:24:49;;;;;;;;;38.67;34.33;;;;;23.17;57.76;100650.59;110532;1261;14884;-67
2022/09/10 07:27:17;;;;;;;;;33.33;30.00;;;;;23.06;57.63;100652.20;110568;1262;13273;-68
2022/09/10 07:29:44;;;;;;;;;35.00;28.00;;;;;22.90;57.55;100648.98;110546;1262;18186;-67
2022/09/10 07:32:12;;;;;;;;;31.00;30.67;;;;;22.91;57.56;100652.29;110521;1262;15098;-68
2022/09/10 07:34:39;;;;;;;;;39.00;31.33;;;;;22.79;57.35;100652.67;110502;1261;13186;-67
2022/09/10 07:37:06;;;;;;;;;32.33;26.67;;;;;22.58;57.58;100651.92;110464;1262;14198;-65
2022/09/10 07:39:34;;;;;;;;;36.33;27.00;;;;;22.50;57.78;100651.60;110398;1261;14485;-69
2022/09/10 07:42:01;;;;;;;;;34.00;29.00;;;;;22.36;58.03;100656.92;110510;1261;13254;-63
2022/09/10 07:44:28;;;;;;;;;30.00;26.00;;;;;22.36;57.96;100657.89;110425;1261;13557;-63
2022/09/10 07:46:56;;;;;;;;;26.00;22.00;;;;;22.54;57.66;100653.92;110391;1262;13574;-64
2022/09/10 07:49:23;;;;;;;;;25.67;20.33;;;;;22.78;57.33;100650.84;110408;1261;14063;-66
2022/09/10 07:51:52;;;;;;;;;20.67;18.67;;;;;22.96;57.31;100652.92;110519;1262;13775;-62
2022/09/10 07:54:19;;;;;;;;;21.00;17.00;;;;;23.04;57.13;100648.61;110571;1261;13214;-64
2022/09/10 07:56:47;;;;;;;;;20.67;18.00;;;;;23.12;57.27;100657.53;110474;1262;14468;-65
2022/09/10 07:59:14;;;;;;;;;16.33;16.33;;;;;23.16;57.11;100653.77;110439;1262;21140;-66
2022/09/10 08:01:42;;;;;;;;;21.00;17.33;;;;;23.21;57.45;100651.40;110499;1262;15075;-63
2022/09/10 08:04:09;;;;;;;;;16.00;15.00;;;;;23.24;57.51;100653.73;110508;1262;14685;-63
2022/09/10 08:06:36;;;;;;;;;14.00;13.00;;;;;23.25;57.53;100654.63;110467;1262;14429;-63
2022/09/10 08:09:03;;;;;;;;;13.00;12.00;;;;;23.25;57.48;100654.42;110493;1262;13224;-63
2022/09/10 08:11:31;;;;;;;;;12.00;11.50;;;;;23.26;57.40;100657.30;110456;1262;14517;-65
2022/09/10 08:13:59;;;;;;;;;11.00;11.00;;;;;23.26;57.34;100655.66;110434;1262;14416;-62
2022/09/10 08:16:27;;;;;;;;;12.33;12.00;;;;;23.30;57.40;100654.38;110381;1262;13982;-63
2022/09/10 08:18:55;;;;;;;;;15.67;12.33;;;;;23.30;57.17;100654.94;110413;1264;14435;-64
2022/09/10 08:21:23;;;;;;;;;21.67;13.67;;;;;23.28;57.17;100654.78;110342;1261;13238;-66
2022/09/10 08:23:51;;;;;;;;;16.00;12.67;;;;;23.26;57.21;100658.13;110475;1262;19435;-63
2022/09/10 08:26:18;;;;;;;;;15.00;12.00;;;;;23.27;57.18;100660.46;110487;1262;13523;-64
2022/09/10 08:28:46;;;;;;;;;11.50;10.00;;;;;23.33;57.03;100661.39;110477;1262;14668;-65
2022/09/10 08:31:15;;;;;;;;;15.00;12.50;;;;;23.36;57.03;100661.33;110520;1262;13416;-64
2022/09/10 08:33:42;;;;;;;;;12.00;11.00;;;;;23.36;56.97;100661.30;110479;1262;14372;-65
2022/09/10 08:36:10;;;;;;;;;13.00;12.00;;;;;23.37;56.85;100658.23;110537;1262;13176;-64
2022/09/10 08:38:38;;;;;;;;;15.67;12.33;;;;;23.37;56.71;100655.16;110535;1262;14406;-65
2022/09/10 08:41:06;;;;;;;;;18.33;17.00;;;;;23.24;56.57;100652.30;110514;1262;14034;-62
2022/09/10 08:43:34;;;;;;;;;16.00;13.00;;;;;23.17;56.58;100654.01;110543;1262;14705;-66
2022/09/10 08:46:02;;;;;;;;;11.00;11.00;;;;;23.15;56.92;100655.29;110493;1261;14553;-64
2022/09/10 08:48:29;;;;;;;;;13.67;12.00;;;;;23.16;56.88;100656.93;110506;1261;13979;-67
2022/09/10 08:50:56;;;;;;;;;16.00;14.33;;;;;23.19;56.80;100653.48;110482;1262;13227;-64
2022/09/10 08:53:24;;;;;;;;;16.67;13.00;;;;;23.21;56.58;100651.77;110479;1261;13523;-68
2022/09/10 08:55:51;;;;;;;;;16.00;13.67;;;;;23.25;56.51;100646.55;110480;1262;14327;-64
2022/09/10 08:58:19;;;;;;;;;16.00;13.00;;;;;23.27;56.40;100652.33;110465;1262;14691;-66
2022/09/10 09:00:46;;;;;;;;;13.67;13.00;;;;;23.24;56.46;100654.90;110543;1262;15799;-62
2022/09/10 09:03:14;;;;;;;;;11.67;11.67;;;;;23.19;56.56;100657.10;110571;1261;13100;-64
2022/09/10 09:05:42;;;;;;;;;12.33;11.67;;;;;23.20;56.57;100661.57;110523;1262;13619;-65
2022/09/10 09:08:09;;;;;;;;;12.50;12.00;;;;;23.19;56.48;100658.53;110555;1262;13671;-62
2022/09/10 09:10:36;;;;;;;;;15.67;14.33;;;;;23.17;56.38;100658.17;110524;1262;13671;-63
2022/09/10 09:13:04;;;;;;;;;18.33;12.00;;;;;23.17;56.34;100656.65;110524;1261;18094;-65
2022/09/10 09:15:31;;;;;;;;;14.33;13.67;;;;;23.15;56.22;100655.88;110556;1262;13736;-63
2022/09/10 09:17:59;;;;;;;;;11.33;11.00;;;;;23.13;56.25;100664.19;110546;1261;13132;-62
2022/09/10 09:20:28;;;;;;;;;10.67;10.67;;;;;23.12;56.17;100663.99;110523;1262;13623;-64
2022/09/10 09:22:55;;;;;;;;;14.33;11.33;;;;;23.11;56.21;100660.08;110529;1261;17069;-65
2022/09/10 09:25:23;;;;;;;;;13.00;11.00;;;;;23.10;56.10;100660.27;110448;1262;13787;-62
2022/09/10 09:27:51;;;;;;;;;11.00;11.00;;;;;23.10;56.07;100659.02;110531;1262;13606;-66
2022/09/10 09:30:18;;;;;;;;;13.00;12.00;;;;;23.09;56.00;100656.36;110452;1264;13067;-62
2022/09/10 09:32:45;;;;;;;;;12.00;11.00;;;;;23.08;55.97;100660.14;110354;1262;13162;-62
2022/09/10 09:35:12;;;;;;;;;12.33;11.33;;;;;23.07;55.93;100661.89;110495;1262;14347;-61
2022/09/10 09:37:40;;;;;;;;;15.00;12.67;;;;;23.08;55.90;100663.92;110519;1262;14002;-63
2022/09/10 09:40:07;;;;;;;;;12.67;12.00;;;;;23.08;55.81;100665.77;110537;1262;13417;-62
2022/09/10 09:42:34;;;;;;;;;15.50;12.00;;;;;23.07;55.75;100666.77;110535;1261;13330;-62
2022/09/10 09:45:01;;;;;;;;;11.00;10.00;;;;;23.07;55.68;100670.42;110554;1262;13203;-64
2022/09/10 09:47:29;;;;;;;;;11.50;10.50;;;;;23.09;55.62;100671.84;110524;1261;13997;-66
2022/09/10 09:49:56;;;;;;;;;15.00;12.33;;;;;23.10;55.57;100672.27;110440;1262;13111;-65
2022/09/10 09:52:23;;;;;;;;;28.67;21.00;;;;;23.07;55.94;100669.51;110420;1262;14638;-63
2022/09/10 09:54:50;;;;;;;;;32.00;26.50;;;;;22.88;56.44;100668.35;110232;1262;13777;-63
2022/09/10 09:57:19;;;;;;;;;25.33;23.33;;;;;22.72;56.66;100664.85;110286;1262;13935;-64
2022/09/10 09:59:47;;;;;;;;;29.33;25.33;;;;;22.56;56.93;100665.93;110230;1261;14319;-63
2022/09/10 10:02:14;;;;;;;;;34.67;26.00;;;;;22.44;57.17;100666.55;110268;1262;15261;-65
2022/09/10 10:04:42;;;;;;;;;28.00;26.00;;;;;22.37;57.32;100666.81;110277;1261;14469;-63
2022/09/10 10:07:10;;;;;;;;;29.00;25.00;;;;;22.36;57.36;100668.05;110360;1262;14830;-64
2022/09/10 10:09:38;;;;;;;;;30.67;25.67;;;;;22.38;57.30;100668.33;110505;1262;14815;-63
2022/09/10 10:12:06;;;;;;;;;29.50;24.00;;;;;22.39;57.29;100666.75;110482;1262;13310;-62
2022/09/10 10:14:35;;;;;;;;;31.00;28.50;;;;;22.40;57.19;100668.23;110487;1261;13451;-64
2022/09/10 10:17:02;;;;;;;;;25.67;21.33;;;;;22.38;57.25;100669.64;110529;1262;13244;-63
2022/09/10 10:19:30;;;;;;;;;26.33;24.67;;;;;22.30;57.36;100668.47;110510;1262;15733;-62
2022/09/10 10:21:58;;;;;;;;;24.00;21.50;;;;;22.26;57.47;100667.66;110451;1261;15463;-65
2022/09/10 10:24:25;;;;;;;;;27.67;24.33;;;;;22.27;57.43;100661.92;110456;1262;13196;-65
2022/09/10 10:26:53;;;;;;;;;25.33;23.33;;;;;22.15;57.75;100659.52;110401;1262;13238;-65
2022/09/10 10:29:20;;;;;;;;;37.67;27.33;;;;;22.04;57.99;100653.55;110525;1261;17300;-62
2022/09/10 10:31:47;;;;;;;;;23.00;19.67;;;;;21.96;58.20;100650.60;110535;1262;14483;-62
2022/09/10 10:34:15;;;;;;;;;24.00;20.00;;;;;21.87;58.43;100650.35;110543;1262;14037;-64
2022/09/10 10:36:42;;;;;;;;;25.00;21.00;;;;;21.89;58.56;100649.44;110535;1262;13863;-65
2022/09/10 10:39:10;;;;;;;;;25.00;21.00;;;;;21.95;58.47;100650.16;110585;1262;13302;-62
2022/09/10 10:41:37;;;;;;;;;20.67;20.33;;;;;21.93;58.44;100645.89;110546;1262;14346;-64
2022/09/10 10:44:05;;;;;;;;;23.00;20.67;;;;;21.90;58.54;100650.42;110556;1262;15083;-65
2022/09/10 10:46:33;;;;;;;;;25.67;21.00;;;;;21.74;58.90;100651.43;110528;1262;14442;-63
2022/09/10 10:49:01;;;;;;;;;19.67;18.00;;;;;21.68;59.16;100648.66;110548;1261;14101;-65
2022/09/10 10:51:28;;;;;;;;;23.33;18.33;;;;;21.68;59.25;100648.11;110581;1262;13198;-64
2022/09/10 10:53:55;;;;;;;;;26.00;24.33;;;;;21.76;59.11;100647.54;110483;1262;16207;-63
2022/09/10 10:56:23;;;;;;;;;24.00;21.00;;;;;21.79;59.06;100643.34;110491;1262;13235;-64
2022/09/10 10:58:50;;;;;;;;;24.50;19.50;;;;;21.84;58.94;100644.30;110432;1262;14289;-64
2022/09/10 11:01:17;;;;;;;;;21.00;19.00;;;;;21.78;59.05;100644.41;110522;1262;14257;-63
2022/09/10 11:03:45;;;;;;;;;19.00;18.67;;;;;21.79;59.08;100642.29;110485;1261;14290;-64
2022/09/10 11:06:13;;;;;;;;;22.00;19.00;;;;;21.68;59.28;100638.12;110521;1262;14603;-65
2022/09/10 11:08:41;;;;;;;;;27.00;21.00;;;;;21.68;59.46;100636.91;110469;1262;13976;-62
2022/09/10 11:11:09;;;;;;;;;22.67;18.00;;;;;21.70;59.57;100634.86;110511;1261;13587;-66